createdAt,value
2018-03-17T00:00:17.034Z,90.0
2018-03-17T00:01:17.073Z,89.9
2018-03-17T00:02:16.352Z,90.0
2018-03-17T00:03:16.631Z,90.0
2018-03-17T00:04:16.910Z,90.2
2018-03-17T00:05:17.181Z,90.0
2018-03-17T00:06:16.477Z,90.0
2018-03-17T00:07:16.753Z,90.0
2018-03-17T00:08:17.039Z,90.2
2018-03-17T00:09:16.323Z,90.2
2018-03-17T00:10:16.604Z,90.3
2018-03-17T00:11:16.662Z,89.8
2018-03-17T00:12:16.960Z,89.8
2018-03-17T00:13:17.232Z,90.0
2018-03-17T00:14:16.499Z,89.7
2018-03-17T00:15:16.789Z,89.8
2018-03-17T00:16:17.059Z,89.8
2018-03-17T00:17:16.330Z,89.8
2018-03-17T00:18:16.598Z,89.8
2018-03-17T00:19:16.871Z,89.9
2018-03-17T00:20:17.159Z,90.0
2018-03-17T00:21:17.214Z,90.2
2018-03-17T00:22:16.476Z,90.3
2018-03-17T00:23:16.741Z,90.3
2018-03-17T00:24:17.011Z,90.3
2018-03-17T00:25:16.353Z,90.5
2018-03-17T00:26:16.628Z,90.6
2018-03-17T00:27:16.896Z,90.8
2018-03-17T00:28:17.178Z,90.8
2018-03-17T00:29:16.448Z,90.8
2018-03-17T00:30:16.740Z,90.8
2018-03-17T00:31:16.777Z,90.9
2018-03-17T00:32:17.062Z,90.8
2018-03-17T00:33:16.424Z,90.8
2018-03-17T00:34:16.703Z,90.8
2018-03-17T00:35:16.974Z,90.8
2018-03-17T00:36:17.248Z,90.7
2018-03-17T00:37:16.515Z,90.7
2018-03-17T00:38:16.782Z,90.6
2018-03-17T00:39:17.070Z,90.5
2018-03-17T00:40:16.349Z,90.5
2018-03-17T00:41:16.409Z,90.7
2018-03-17T00:42:16.691Z,90.7
2018-03-17T00:43:16.958Z,90.7
2018-03-17T00:44:17.227Z,90.5
2018-03-17T00:45:16.498Z,90.5
2018-03-17T00:46:16.768Z,90.5
2018-03-17T00:47:17.040Z,90.5
2018-03-17T00:48:16.318Z,90.4
2018-03-17T00:49:16.587Z,90.4
2018-03-17T00:50:16.874Z,90.5
2018-03-17T00:51:16.914Z,90.5
2018-03-17T00:52:17.282Z,90.5
2018-03-17T00:53:16.548Z,90.4
2018-03-17T00:54:16.820Z,90.4
2018-03-17T00:55:17.108Z,90.3
2018-03-17T00:56:16.378Z,90.3
2018-03-17T00:57:16.658Z,90.2
2018-03-17T00:58:16.937Z,90.3
2018-03-17T00:59:17.209Z,90.3
2018-03-17T01:00:16.487Z,90.2
2018-03-17T01:01:16.523Z,90.2
2018-03-17T01:02:16.788Z,90.2
2018-03-17T01:03:17.064Z,90.3
2018-03-17T01:04:16.335Z,90.2
2018-03-17T01:05:16.614Z,90.2
2018-03-17T01:06:16.887Z,89.5
2018-03-17T01:07:17.585Z,89.5
2018-03-17T01:08:16.850Z,90.0
2018-03-17T01:09:17.121Z,89.2
2018-03-17T01:10:16.428Z,89.2
2018-03-17T01:11:16.449Z,89.3
2018-03-17T01:12:16.722Z,89.3
2018-03-17T01:13:16.997Z,89.4
2018-03-17T01:14:16.272Z,89.3
2018-03-17T01:15:16.544Z,89.1
2018-03-17T01:16:16.820Z,89.0
2018-03-17T01:17:17.092Z,88.9
2018-03-17T01:18:16.391Z,88.8
2018-03-17T01:19:16.667Z,88.8
2018-03-17T01:20:16.948Z,89.0
2018-03-17T01:21:16.982Z,89.0
2018-03-17T01:22:17.254Z,89.1
2018-03-17T01:23:16.529Z,89.2
2018-03-17T01:24:16.810Z,89.1
2018-03-17T01:25:17.079Z,89.1
2018-03-17T01:26:16.351Z,88.8
2018-03-17T01:27:16.625Z,88.8
2018-03-17T01:28:16.901Z,88.9
2018-03-17T01:29:17.174Z,89.0
2018-03-17T01:30:16.472Z,89.0
2018-03-17T01:31:16.491Z,88.9
2018-03-17T01:32:16.766Z,88.8
2018-03-17T01:33:17.711Z,88.9
2018-03-17T01:34:16.979Z,88.9
2018-03-17T01:35:17.263Z,88.4
2018-03-17T01:36:16.550Z,88.5
2018-03-17T01:37:16.817Z,88.3
2018-03-17T01:38:17.393Z,88.5
2018-03-17T01:39:16.667Z,88.6
2018-03-17T01:40:16.937Z,88.2
2018-03-17T01:41:16.998Z,88.4
2018-03-17T01:42:16.269Z,87.9
2018-03-17T01:43:16.549Z,88.0
2018-03-17T01:44:16.825Z,88.1
2018-03-17T01:45:17.095Z,88.0
2018-03-17T01:46:16.446Z,88.3
2018-03-17T01:47:16.716Z,88.0
2018-03-17T01:48:16.986Z,88.0
2018-03-17T01:49:17.624Z,87.8
2018-03-17T01:50:16.899Z,87.8
2018-03-17T01:51:16.935Z,87.8
2018-03-17T01:52:17.207Z,87.9
2018-03-17T01:53:16.472Z,87.7
2018-03-17T01:54:16.756Z,87.8
2018-03-17T01:55:17.035Z,88.0
2018-03-17T01:56:16.343Z,88.0
2018-03-17T01:57:16.614Z,88.2
2018-03-17T01:58:16.881Z,88.0
2018-03-17T01:59:17.356Z,88.2
2018-03-17T02:00:16.629Z,87.8
2018-03-17T02:01:16.674Z,87.6
2018-03-17T02:02:16.950Z,87.6
2018-03-17T02:03:17.231Z,87.6
2018-03-17T02:04:16.519Z,87.5
2018-03-17T02:05:16.939Z,87.5
2018-03-17T02:06:17.219Z,87.5
2018-03-17T02:07:16.489Z,87.5
2018-03-17T02:08:16.764Z,87.5
2018-03-17T02:09:17.039Z,87.5
2018-03-17T02:10:16.326Z,87.7
2018-03-17T02:11:16.342Z,87.8
2018-03-17T02:12:16.605Z,87.9
2018-03-17T02:13:16.870Z,87.5
2018-03-17T02:14:17.145Z,87.6
2018-03-17T02:15:16.410Z,87.7
2018-03-17T02:16:16.684Z,88.0
2018-03-17T02:17:16.962Z,88.0
2018-03-17T02:18:17.233Z,88.1
2018-03-17T02:19:16.507Z,88.1
2018-03-17T02:20:16.781Z,87.8
2018-03-17T02:21:16.842Z,87.8
2018-03-17T02:22:17.179Z,87.9
2018-03-17T02:23:16.460Z,88.0
2018-03-17T02:24:16.737Z,88.2
2018-03-17T02:25:17.015Z,88.3
2018-03-17T02:26:16.288Z,87.8
2018-03-17T02:27:16.557Z,87.8
2018-03-17T02:28:16.827Z,87.9
2018-03-17T02:29:17.099Z,87.9
2018-03-17T02:30:16.403Z,88.2
2018-03-17T02:31:16.716Z,88.4
2018-03-17T02:32:16.998Z,88.4
2018-03-17T02:33:16.266Z,88.2
2018-03-17T02:34:16.557Z,88.2
2018-03-17T02:35:16.822Z,88.0
2018-03-17T02:36:17.119Z,88.3
2018-03-17T02:37:16.390Z,88.3
2018-03-17T02:38:16.662Z,88.3
2018-03-17T02:39:16.945Z,88.3
2018-03-17T02:40:17.227Z,88.4
2018-03-17T02:41:16.310Z,88.3
2018-03-17T02:42:16.590Z,88.4
2018-03-17T02:43:16.857Z,88.5
2018-03-17T02:44:17.143Z,88.2
2018-03-17T02:45:16.519Z,88.3
2018-03-17T02:46:16.794Z,88.5
2018-03-17T02:47:17.082Z,88.7
2018-03-17T02:48:16.490Z,88.4
2018-03-17T02:49:16.772Z,88.5
2018-03-17T02:50:17.080Z,88.3
2018-03-17T02:51:17.095Z,88.3
2018-03-17T02:52:16.478Z,88.4
2018-03-17T02:53:16.753Z,88.5
2018-03-17T02:54:17.031Z,88.7
2018-03-17T02:55:16.304Z,88.7
2018-03-17T02:56:16.590Z,88.7
2018-03-17T02:57:16.865Z,88.6
2018-03-17T02:58:17.151Z,88.5
2018-03-17T02:59:16.421Z,88.5
2018-03-17T03:00:16.700Z,88.5
2018-03-17T03:01:16.762Z,88.5
2018-03-17T03:02:17.027Z,88.8
2018-03-17T03:03:16.312Z,88.7
2018-03-17T03:04:16.584Z,88.7
2018-03-17T03:05:16.881Z,88.6
2018-03-17T03:06:17.161Z,89.2
2018-03-17T03:07:16.471Z,89.2
2018-03-17T03:08:16.751Z,88.8
2018-03-17T03:09:17.021Z,88.8
2018-03-17T03:10:16.384Z,89.0
2018-03-17T03:11:16.349Z,89.0
2018-03-17T03:12:16.635Z,88.9
2018-03-17T03:13:16.899Z,88.9
2018-03-17T03:14:17.551Z,89.0
2018-03-17T03:15:16.829Z,88.8
2018-03-17T03:16:17.112Z,88.7
2018-03-17T03:17:16.402Z,89.0
2018-03-17T03:18:16.668Z,89.0
2018-03-17T03:19:16.946Z,88.8
2018-03-17T03:20:17.219Z,88.8
2018-03-17T03:21:16.320Z,89.0
2018-03-17T03:22:16.700Z,89.0
2018-03-17T03:23:16.963Z,89.0
2018-03-17T03:24:17.253Z,89.0
2018-03-17T03:25:16.611Z,89.0
2018-03-17T03:26:16.880Z,89.0
2018-03-17T03:27:17.153Z,88.8
2018-03-17T03:28:16.450Z,88.9
2018-03-17T03:29:16.727Z,89.0
2018-03-17T03:30:17.034Z,88.7
2018-03-17T03:31:17.067Z,88.7
2018-03-17T03:32:16.341Z,88.8
2018-03-17T03:33:16.603Z,88.9
2018-03-17T03:34:16.888Z,88.8
2018-03-17T03:35:17.171Z,88.8
2018-03-17T03:36:16.438Z,88.8
2018-03-17T03:37:16.706Z,88.9
2018-03-17T03:38:16.983Z,88.9
2018-03-17T03:39:17.276Z,88.7
2018-03-17T03:40:16.554Z,88.5
2018-03-17T03:41:16.614Z,88.7
2018-03-17T03:42:16.882Z,88.5
2018-03-17T03:43:17.152Z,88.5
2018-03-17T03:44:16.490Z,88.7
2018-03-17T03:45:16.768Z,88.7
2018-03-17T03:46:17.046Z,88.7
2018-03-17T03:47:16.325Z,88.5
2018-03-17T03:48:16.602Z,88.7
2018-03-17T03:49:16.871Z,88.7
2018-03-17T03:50:17.151Z,88.7
2018-03-17T03:51:17.203Z,88.7
2018-03-17T03:52:16.478Z,88.5
2018-03-17T03:53:16.747Z,88.4
2018-03-17T03:54:17.038Z,88.3
2018-03-17T03:55:16.349Z,88.3
2018-03-17T03:56:16.621Z,88.0
2018-03-17T03:57:16.889Z,88.2
2018-03-17T03:58:17.168Z,88.2
2018-03-17T03:59:16.439Z,88.0
2018-03-17T04:00:16.730Z,88.3
2018-03-17T04:01:16.766Z,88.2
2018-03-17T04:02:17.032Z,88.2
2018-03-17T04:03:16.373Z,88.2
2018-03-17T04:04:16.629Z,88.3
2018-03-17T04:05:16.894Z,88.3
2018-03-17T04:06:17.171Z,88.1
2018-03-17T04:07:16.445Z,88.1
2018-03-17T04:08:16.716Z,87.7
2018-03-17T04:09:16.993Z,87.8
2018-03-17T04:10:16.331Z,87.4
2018-03-17T04:11:16.390Z,87.3
2018-03-17T04:12:16.668Z,87.3
2018-03-17T04:13:16.934Z,87.3
2018-03-17T04:14:17.200Z,87.2
2018-03-17T04:15:16.518Z,87.3
2018-03-17T04:16:16.795Z,87.3
2018-03-17T04:17:17.065Z,87.2
2018-03-17T04:18:16.332Z,87.3
2018-03-17T04:19:16.614Z,87.3
2018-03-17T04:20:16.898Z,87.3
2018-03-17T04:21:16.937Z,87.5
2018-03-17T04:22:17.225Z,87.2
2018-03-17T04:23:16.535Z,87.1
2018-03-17T04:24:16.816Z,86.9
2018-03-17T04:25:17.094Z,87.1
2018-03-17T04:26:16.719Z,87.1
2018-03-17T04:27:16.998Z,86.8
2018-03-17T04:28:16.265Z,86.9
2018-03-17T04:29:16.536Z,86.9
2018-03-17T04:30:16.806Z,87.0
2018-03-17T04:31:16.873Z,87.0
2018-03-17T04:32:17.148Z,86.3
2018-03-17T04:33:16.423Z,86.2
2018-03-17T04:34:16.691Z,86.3
2018-03-17T04:35:16.960Z,86.3
2018-03-17T04:36:17.251Z,86.2
2018-03-17T04:37:16.617Z,86.2
2018-03-17T04:38:16.888Z,86.2
2018-03-17T04:39:17.163Z,86.2
2018-03-17T04:40:16.469Z,86.2
2018-03-17T04:41:16.522Z,86.2
2018-03-17T04:42:16.808Z,86.2
2018-03-17T04:43:17.086Z,86.2
2018-03-17T04:44:16.353Z,86.3
2018-03-17T04:45:16.628Z,86.2
2018-03-17T04:46:16.896Z,85.7
2018-03-17T04:47:17.378Z,85.7
2018-03-17T04:48:16.649Z,85.8
2018-03-17T04:49:16.926Z,85.7
2018-03-17T04:50:17.196Z,85.8
2018-03-17T04:51:17.313Z,85.8
2018-03-17T04:52:16.592Z,85.8
2018-03-17T04:53:16.863Z,85.8
2018-03-17T04:54:17.128Z,85.8
2018-03-17T04:55:16.519Z,85.7
2018-03-17T04:56:16.783Z,85.7
2018-03-17T04:57:17.065Z,85.5
2018-03-17T04:58:16.342Z,85.7
2018-03-17T04:59:16.618Z,85.7
2018-03-17T05:00:16.940Z,85.5
2018-03-17T05:01:16.944Z,85.0
2018-03-17T05:02:17.526Z,84.8
2018-03-17T05:03:16.795Z,84.8
2018-03-17T05:04:17.066Z,84.8
2018-03-17T05:05:16.408Z,84.8
2018-03-17T05:06:16.681Z,85.0
2018-03-17T05:07:16.957Z,85.0
2018-03-17T05:08:17.235Z,85.2
2018-03-17T05:09:16.506Z,85.2
2018-03-17T05:10:16.779Z,85.0
2018-03-17T05:11:16.823Z,85.0
2018-03-17T05:12:17.092Z,84.9
2018-03-17T05:13:16.496Z,84.8
2018-03-17T05:14:16.775Z,84.5
2018-03-17T05:15:17.057Z,84.5
2018-03-17T05:16:16.331Z,84.7
2018-03-17T05:17:16.601Z,84.7
2018-03-17T05:18:16.872Z,84.8
2018-03-17T05:19:17.153Z,84.7
2018-03-17T05:20:16.469Z,84.6
2018-03-17T05:21:16.490Z,84.7
2018-03-17T05:22:16.768Z,84.8
2018-03-17T05:23:17.041Z,84.5
2018-03-17T05:24:16.312Z,84.7
2018-03-17T05:25:16.597Z,84.5
2018-03-17T05:26:16.874Z,84.5
2018-03-17T05:27:17.153Z,84.6
2018-03-17T05:28:16.427Z,84.8
2018-03-17T05:29:16.691Z,84.8
2018-03-17T05:30:16.965Z,84.7
2018-03-17T05:31:17.008Z,84.8
2018-03-17T05:32:16.295Z,84.8
2018-03-17T05:33:16.589Z,84.7
2018-03-17T05:34:16.910Z,84.7
2018-03-17T05:35:17.192Z,84.8
2018-03-17T05:36:16.465Z,84.7
2018-03-17T05:37:16.799Z,84.8
2018-03-17T05:38:17.075Z,85.0
2018-03-17T05:39:16.344Z,84.6
2018-03-17T05:40:16.628Z,84.5
2018-03-17T05:41:16.672Z,84.7
2018-03-17T05:42:16.955Z,84.5
2018-03-17T05:43:17.270Z,84.5
2018-03-17T05:44:16.544Z,84.0
2018-03-17T05:45:16.820Z,83.8
2018-03-17T05:46:17.097Z,83.8
2018-03-17T05:47:16.380Z,83.8
2018-03-17T05:48:16.642Z,83.8
2018-03-17T05:49:16.908Z,83.8
2018-03-17T05:50:17.190Z,84.0
2018-03-17T05:51:17.261Z,84.0
2018-03-17T05:52:16.608Z,84.0
2018-03-17T05:53:17.095Z,83.9
2018-03-17T05:54:16.360Z,83.8
2018-03-17T05:55:16.631Z,83.8
2018-03-17T05:56:16.916Z,83.8
2018-03-17T05:57:17.181Z,83.8
2018-03-17T05:58:16.457Z,83.5
2018-03-17T05:59:16.853Z,83.5
2018-03-17T06:00:17.140Z,83.5
2018-03-17T06:01:17.193Z,83.6
2018-03-17T06:02:16.476Z,83.3
2018-03-17T06:03:16.762Z,83.2
2018-03-17T06:04:17.111Z,83.1
2018-03-17T06:05:16.392Z,83.0
2018-03-17T06:06:16.724Z,83.1
2018-03-17T06:07:17.002Z,83.1
2018-03-17T06:08:16.285Z,83.0
2018-03-17T06:09:16.556Z,83.0
2018-03-17T06:10:16.836Z,83.0
2018-03-17T06:11:16.878Z,83.0
2018-03-17T06:12:17.154Z,82.9
2018-03-17T06:13:16.430Z,83.2
2018-03-17T06:14:16.721Z,83.2
2018-03-17T06:15:17.041Z,82.3
2018-03-17T06:16:16.308Z,82.3
2018-03-17T06:17:16.581Z,82.5
2018-03-17T06:18:16.851Z,82.3
2018-03-17T06:19:17.132Z,82.3
2018-03-17T06:20:16.410Z,82.2
2018-03-17T06:21:16.449Z,82.2
2018-03-17T06:22:16.715Z,82.0
2018-03-17T06:23:17.349Z,82.0
2018-03-17T06:24:16.621Z,81.8
2018-03-17T06:25:17.005Z,81.2
2018-03-17T06:26:16.277Z,81.3
2018-03-17T06:27:16.547Z,81.3
2018-03-17T06:28:16.813Z,81.5
2018-03-17T06:29:17.079Z,81.6
2018-03-17T06:30:16.351Z,81.2
2018-03-17T06:31:16.374Z,81.5
2018-03-17T06:32:16.639Z,81.5
2018-03-17T06:33:16.944Z,81.7
2018-03-17T06:34:17.215Z,81.0
2018-03-17T06:35:16.502Z,80.6
2018-03-17T06:36:16.790Z,80.8
2018-03-17T06:37:17.072Z,80.9
2018-03-17T06:38:16.347Z,80.8
2018-03-17T06:39:16.643Z,80.6
2018-03-17T06:40:16.920Z,80.7
2018-03-17T06:41:16.972Z,80.8
2018-03-17T06:42:17.244Z,81.0
2018-03-17T06:43:16.513Z,80.8
2018-03-17T06:44:16.785Z,80.9
2018-03-17T06:45:17.055Z,81.0
2018-03-17T06:46:16.328Z,80.8
2018-03-17T06:47:16.596Z,80.7
2018-03-17T06:48:16.867Z,80.3
2018-03-17T06:49:17.134Z,80.5
2018-03-17T06:50:16.410Z,80.5
2018-03-17T06:51:16.446Z,80.1
2018-03-17T06:52:16.712Z,80.1
2018-03-17T06:53:16.997Z,79.6
2018-03-17T06:54:16.268Z,79.2
2018-03-17T06:55:16.595Z,79.2
2018-03-17T06:56:16.932Z,79.5
2018-03-17T06:57:17.196Z,79.5
2018-03-17T06:58:16.457Z,79.7
2018-03-17T06:59:16.828Z,78.9
2018-03-17T07:00:17.117Z,79.1
2018-03-17T07:01:17.159Z,78.8
2018-03-17T07:02:16.426Z,79.0
2018-03-17T07:03:16.788Z,79.0
2018-03-17T07:04:17.067Z,79.0
2018-03-17T07:05:16.348Z,79.0
2018-03-17T07:06:16.626Z,78.5
2018-03-17T07:07:16.991Z,78.4
2018-03-17T07:08:16.267Z,78.4
2018-03-17T07:09:16.535Z,77.9
2018-03-17T07:10:16.884Z,78.0
2018-03-17T07:11:16.860Z,78.2
2018-03-17T07:12:17.232Z,78.2
2018-03-17T07:13:16.510Z,77.7
2018-03-17T07:14:16.822Z,77.7
2018-03-17T07:15:17.100Z,77.3
2018-03-17T07:16:16.375Z,77.1
2018-03-17T07:17:16.654Z,77.3
2018-03-17T07:18:16.919Z,77.5
2018-03-17T07:19:17.196Z,77.5
2018-03-17T07:20:16.482Z,77.3
2018-03-17T07:21:16.517Z,77.2
2018-03-17T07:22:16.837Z,77.5
2018-03-17T07:23:17.109Z,77.4
2018-03-17T07:24:16.385Z,76.9
2018-03-17T07:25:16.959Z,77.0
2018-03-17T07:26:17.253Z,76.8
2018-03-17T07:27:16.536Z,76.8
2018-03-17T07:28:16.848Z,76.5
2018-03-17T07:29:17.115Z,76.6
2018-03-17T07:30:16.393Z,76.1
2018-03-17T07:31:16.455Z,76.5
2018-03-17T07:32:16.776Z,76.3
2018-03-17T07:33:17.087Z,76.6
2018-03-17T07:34:16.365Z,76.5
2018-03-17T07:35:16.642Z,76.8
2018-03-17T07:36:16.907Z,76.9
2018-03-17T07:37:17.169Z,76.2
2018-03-17T07:38:16.440Z,76.4
2018-03-17T07:39:16.712Z,75.7
2018-03-17T07:40:16.987Z,75.6
2018-03-17T07:41:17.018Z,76.0
2018-03-17T07:42:16.292Z,76.3
2018-03-17T07:43:16.557Z,76.2
2018-03-17T07:44:16.837Z,75.8
2018-03-17T07:45:18.293Z,76.1
2018-03-17T07:46:16.574Z,76.2
2018-03-17T07:47:16.893Z,75.7
2018-03-17T07:48:17.178Z,74.8
2018-03-17T07:49:16.448Z,74.8
2018-03-17T07:50:16.730Z,75.3
2018-03-17T07:51:16.814Z,75.3
2018-03-17T07:52:17.097Z,75.5
2018-03-17T07:53:16.370Z,75.7
2018-03-17T07:54:16.647Z,75.5
2018-03-17T07:55:16.944Z,75.3
2018-03-17T07:56:17.235Z,75.2
2018-03-17T07:57:16.539Z,74.8
2018-03-17T07:58:16.820Z,74.7
2018-03-17T07:59:17.087Z,74.7
2018-03-17T08:00:16.373Z,74.5
2018-03-17T08:01:16.429Z,74.7
2018-03-17T08:02:16.699Z,74.7
2018-03-17T08:03:16.985Z,74.8
2018-03-17T08:04:17.277Z,75.0
2018-03-17T08:05:16.555Z,74.7
2018-03-17T08:06:16.872Z,74.9
2018-03-17T08:07:17.150Z,75.0
2018-03-17T08:08:16.415Z,74.4
2018-03-17T08:09:16.698Z,74.6
2018-03-17T08:10:16.979Z,74.7
2018-03-17T08:11:17.043Z,74.3
2018-03-17T08:12:16.312Z,74.7
2018-03-17T08:13:16.580Z,74.5
2018-03-17T08:14:16.922Z,74.8
2018-03-17T08:15:17.239Z,74.2
2018-03-17T08:16:16.515Z,74.1
2018-03-17T08:17:16.833Z,74.3
2018-03-17T08:18:17.142Z,74.0
2018-03-17T08:19:16.419Z,74.2
2018-03-17T08:20:16.695Z,74.2
2018-03-17T08:21:16.736Z,74.2
2018-03-17T08:22:17.024Z,74.0
2018-03-17T08:23:16.296Z,74.1
2018-03-17T08:24:16.556Z,73.8
2018-03-17T08:25:16.897Z,74.2
2018-03-17T08:26:17.469Z,73.8
2018-03-17T08:27:16.739Z,73.8
2018-03-17T08:28:17.005Z,74.0
2018-03-17T08:29:16.277Z,74.0
2018-03-17T08:30:16.555Z,74.0
2018-03-17T08:31:16.606Z,74.0
2018-03-17T08:32:17.173Z,73.7
2018-03-17T08:33:16.449Z,73.8
2018-03-17T08:34:16.753Z,73.2
2018-03-17T08:35:17.089Z,73.5
2018-03-17T08:36:16.363Z,74.1
2018-03-17T08:37:16.789Z,73.4
2018-03-17T08:38:17.063Z,72.8
2018-03-17T08:39:16.338Z,73.3
2018-03-17T08:40:16.613Z,73.2
2018-03-17T08:41:16.662Z,73.3
2018-03-17T08:42:16.925Z,73.3
2018-03-17T08:43:17.194Z,72.8
2018-03-17T08:44:16.461Z,72.8
2018-03-17T08:45:16.738Z,72.7
2018-03-17T08:46:17.011Z,72.8
2018-03-17T08:47:16.285Z,72.7
2018-03-17T08:48:16.561Z,72.7
2018-03-17T08:49:16.842Z,72.7
2018-03-17T08:50:17.159Z,72.0
2018-03-17T08:51:17.198Z,72.2
2018-03-17T08:52:16.466Z,72.0
2018-03-17T08:53:16.745Z,72.2
2018-03-17T08:54:17.019Z,72.2
2018-03-17T08:55:16.290Z,72.5
2018-03-17T08:56:16.558Z,72.2
2018-03-17T08:57:16.829Z,72.5
2018-03-17T08:58:17.099Z,72.2
2018-03-17T08:59:16.373Z,72.5
2018-03-17T09:00:16.654Z,72.3
2018-03-17T09:01:16.702Z,72.2
2018-03-17T09:02:17.276Z,72.2
2018-03-17T09:03:16.546Z,72.2
2018-03-17T09:04:16.931Z,72.3
2018-03-17T09:05:17.206Z,72.0
2018-03-17T09:06:16.479Z,72.0
2018-03-17T09:07:16.745Z,71.7
2018-03-17T09:08:17.018Z,72.1
2018-03-17T09:09:16.299Z,72.0
2018-03-17T09:10:16.573Z,72.0
2018-03-17T09:11:16.614Z,71.2
2018-03-17T09:12:16.896Z,72.0
2018-03-17T09:13:17.433Z,71.9
2018-03-17T09:14:16.706Z,71.2
2018-03-17T09:15:16.976Z,71.2
2018-03-17T09:16:17.252Z,71.2
2018-03-17T09:17:16.541Z,71.4
2018-03-17T09:18:16.822Z,71.3
2018-03-17T09:19:17.096Z,71.2
2018-03-17T09:20:16.384Z,71.5
2018-03-17T09:21:16.439Z,71.3
2018-03-17T09:22:16.698Z,71.4
2018-03-17T09:23:17.065Z,71.2
2018-03-17T09:24:16.403Z,71.0
2018-03-17T09:25:16.679Z,70.8
2018-03-17T09:26:16.953Z,70.8
2018-03-17T09:27:17.217Z,70.7
2018-03-17T09:28:16.494Z,70.8
2018-03-17T09:29:16.764Z,70.8
2018-03-17T09:30:17.041Z,70.8
2018-03-17T09:31:17.096Z,70.5
2018-03-17T09:32:16.369Z,70.6
2018-03-17T09:33:16.650Z,70.5
2018-03-17T09:34:16.926Z,70.6
2018-03-17T09:35:17.194Z,70.5
2018-03-17T09:36:16.474Z,70.5
2018-03-17T09:37:16.753Z,70.3
2018-03-17T09:38:17.040Z,70.0
2018-03-17T09:39:16.306Z,70.1
2018-03-17T09:40:16.582Z,70.0
2018-03-17T09:41:16.642Z,70.2
2018-03-17T09:42:17.110Z,70.0
2018-03-17T09:43:16.381Z,69.8
2018-03-17T09:44:16.653Z,70.0
2018-03-17T09:45:16.939Z,70.0
2018-03-17T09:46:17.227Z,70.3
2018-03-17T09:47:16.493Z,70.2
2018-03-17T09:48:16.761Z,70.2
2018-03-17T09:49:17.041Z,70.2
2018-03-17T09:50:16.323Z,69.8
2018-03-17T09:51:16.365Z,69.8
2018-03-17T09:52:16.766Z,69.9
2018-03-17T09:53:17.161Z,69.8
2018-03-17T09:54:16.447Z,69.5
2018-03-17T09:55:16.731Z,69.8
2018-03-17T09:56:17.007Z,69.8
2018-03-17T09:57:16.278Z,69.6
2018-03-17T09:58:16.611Z,69.5
2018-03-17T09:59:16.890Z,69.5
2018-03-17T10:00:17.193Z,69.3
2018-03-17T10:01:17.209Z,69.2
2018-03-17T10:02:16.479Z,68.8
2018-03-17T10:03:16.742Z,68.8
2018-03-17T10:04:17.075Z,68.2
2018-03-17T10:05:16.388Z,67.8
2018-03-17T10:06:16.652Z,67.8
2018-03-17T10:07:16.923Z,67.7
2018-03-17T10:08:17.200Z,67.2
2018-03-17T10:09:16.474Z,67.0
2018-03-17T10:10:16.744Z,67.5
2018-03-17T10:11:16.788Z,67.0
2018-03-17T10:12:17.092Z,67.7
2018-03-17T10:13:16.374Z,67.6
2018-03-17T10:14:16.655Z,67.7
2018-03-17T10:15:16.954Z,67.5
2018-03-17T10:16:17.243Z,67.5
2018-03-17T10:17:16.513Z,67.5
2018-03-17T10:18:16.821Z,67.0
2018-03-17T10:19:17.099Z,66.5
2018-03-17T10:20:16.376Z,67.0
2018-03-17T10:21:16.416Z,66.9
2018-03-17T10:22:16.689Z,66.8
2018-03-17T10:23:16.965Z,67.2
2018-03-17T10:24:17.233Z,67.3
2018-03-17T10:25:16.506Z,67.0
2018-03-17T10:26:16.785Z,67.3
2018-03-17T10:27:17.073Z,67.2
2018-03-17T10:28:16.360Z,67.3
2018-03-17T10:29:16.635Z,67.5
2018-03-17T10:30:16.920Z,66.8
2018-03-17T10:31:16.957Z,66.9
2018-03-17T10:32:17.306Z,67.0
2018-03-17T10:33:16.582Z,66.6
2018-03-17T10:34:16.853Z,66.2
2018-03-17T10:35:17.299Z,67.2
2018-03-17T10:36:16.587Z,66.7
2018-03-17T10:37:16.867Z,67.3
2018-03-17T10:38:17.436Z,67.3
2018-03-17T10:39:16.707Z,67.3
2018-03-17T10:40:16.975Z,67.4
2018-03-17T10:41:17.076Z,67.3
2018-03-17T10:42:16.451Z,67.3
2018-03-17T10:43:16.724Z,67.3
2018-03-17T10:44:17.096Z,67.5
2018-03-17T10:45:16.380Z,67.2
2018-03-17T10:46:16.661Z,67.2
2018-03-17T10:47:16.932Z,67.7
2018-03-17T10:48:17.212Z,67.3
2018-03-17T10:49:16.482Z,67.7
2018-03-17T10:50:16.764Z,67.3
2018-03-17T10:51:16.818Z,67.2
2018-03-17T10:52:17.158Z,66.7
2018-03-17T10:53:16.443Z,67.0
2018-03-17T10:54:16.745Z,66.8
2018-03-17T10:55:17.093Z,67.2
2018-03-17T10:56:16.383Z,67.6
2018-03-17T10:57:16.642Z,67.2
2018-03-17T10:58:16.921Z,66.8
2018-03-17T10:59:17.479Z,66.7
2018-03-17T11:00:16.854Z,67.0
2018-03-17T11:01:16.806Z,67.0
2018-03-17T11:02:17.080Z,66.6
2018-03-17T11:03:16.344Z,66.9
2018-03-17T11:04:16.613Z,66.8
2018-03-17T11:05:16.902Z,67.0
2018-03-17T11:06:17.384Z,66.5
2018-03-17T11:07:16.711Z,66.5
2018-03-17T11:08:17.061Z,66.2
2018-03-17T11:09:16.334Z,66.3
2018-03-17T11:10:16.614Z,66.3
2018-03-17T11:11:16.659Z,65.8
2018-03-17T11:12:16.930Z,65.9
2018-03-17T11:13:17.201Z,66.2
2018-03-17T11:14:16.472Z,66.0
2018-03-17T11:15:16.749Z,66.0
2018-03-17T11:16:17.026Z,65.8
2018-03-17T11:17:16.302Z,65.8
2018-03-17T11:18:16.579Z,66.0
2018-03-17T11:19:16.848Z,66.0
2018-03-17T11:20:17.120Z,66.0
2018-03-17T11:21:17.242Z,66.0
2018-03-17T11:22:16.524Z,66.1
2018-03-17T11:23:16.789Z,66.2
2018-03-17T11:24:17.131Z,66.2
2018-03-17T11:25:16.412Z,66.4
2018-03-17T11:26:16.692Z,66.4
2018-03-17T11:27:16.959Z,66.2
2018-03-17T11:28:17.239Z,65.8
2018-03-17T11:29:16.511Z,66.2
2018-03-17T11:30:16.791Z,66.4
2018-03-17T11:31:16.832Z,66.5
2018-03-17T11:32:17.092Z,66.3
2018-03-17T11:33:16.361Z,66.3
2018-03-17T11:34:16.633Z,66.5
2018-03-17T11:35:16.913Z,65.9
2018-03-17T11:36:17.183Z,66.0
2018-03-17T11:37:16.454Z,66.4
2018-03-17T11:38:16.716Z,66.2
2018-03-17T11:39:16.987Z,66.5
2018-03-17T11:40:17.395Z,66.0
2018-03-17T11:41:16.320Z,65.9
2018-03-17T11:42:16.584Z,66.2
2018-03-17T11:43:16.862Z,66.0
2018-03-17T11:44:17.140Z,66.0
2018-03-17T11:45:16.415Z,65.5
2018-03-17T11:46:16.698Z,65.8
2018-03-17T11:47:16.970Z,66.0
2018-03-17T11:48:17.249Z,66.0
2018-03-17T11:49:16.535Z,65.8
2018-03-17T11:50:16.815Z,66.0
2018-03-17T11:51:16.872Z,66.4
2018-03-17T11:52:17.168Z,66.2
2018-03-17T11:53:16.444Z,66.2
2018-03-17T11:54:16.724Z,66.3
2018-03-17T11:55:17.070Z,66.5
2018-03-17T11:56:16.423Z,66.2
2018-03-17T11:57:16.699Z,66.9
2018-03-17T11:58:16.975Z,66.0
2018-03-17T11:59:17.328Z,66.2
2018-03-17T12:00:16.602Z,66.3
2018-03-17T12:01:16.664Z,65.8
2018-03-17T12:02:16.941Z,66.0
2018-03-17T12:03:17.217Z,66.0
2018-03-17T12:04:16.494Z,66.0
2018-03-17T12:05:16.765Z,66.0
2018-03-17T12:06:17.030Z,65.3
2018-03-17T12:07:16.295Z,65.8
2018-03-17T12:08:16.571Z,65.7
2018-03-17T12:09:16.844Z,65.7
2018-03-17T12:10:17.165Z,65.8
2018-03-17T12:11:18.104Z,65.7
2018-03-17T12:12:16.381Z,65.7
2018-03-17T12:13:16.654Z,65.8
2018-03-17T12:14:16.928Z,65.9
2018-03-17T12:15:17.228Z,65.6
2018-03-17T12:16:16.511Z,65.7
2018-03-17T12:17:17.065Z,65.7
2018-03-17T12:18:16.341Z,65.4
2018-03-17T12:19:16.609Z,65.6
2018-03-17T12:20:16.891Z,65.5
2018-03-17T12:21:16.938Z,65.3
2018-03-17T12:22:17.214Z,64.8
2018-03-17T12:23:16.484Z,64.8
2018-03-17T12:24:16.758Z,64.2
2018-03-17T12:25:17.145Z,64.5
2018-03-17T12:26:16.416Z,63.5
2018-03-17T12:27:16.692Z,63.9
2018-03-17T12:28:16.962Z,63.9
2018-03-17T12:29:17.397Z,63.7
2018-03-17T12:30:16.684Z,63.5
2018-03-17T12:31:16.735Z,63.2
2018-03-17T12:32:17.006Z,63.1
2018-03-17T12:33:16.281Z,63.2
2018-03-17T12:34:16.555Z,63.0
2018-03-17T12:35:16.836Z,62.9
2018-03-17T12:36:17.175Z,62.1
2018-03-17T12:37:16.443Z,62.1
2018-03-17T12:38:16.715Z,62.0
2018-03-17T12:39:16.983Z,62.0
2018-03-17T12:40:22.061Z,61.9
2018-03-17T12:41:16.304Z,61.2
2018-03-17T12:42:16.692Z,61.3
2018-03-17T12:43:16.967Z,61.1
2018-03-17T12:44:17.284Z,61.0
2018-03-17T12:45:16.598Z,60.9
2018-03-17T12:46:16.872Z,61.5
2018-03-17T12:47:17.436Z,61.1
2018-03-17T12:48:16.711Z,60.9
2018-03-17T12:49:16.984Z,61.0
2018-03-17T12:50:16.263Z,60.6
2018-03-17T12:51:16.312Z,60.6
2018-03-17T12:52:16.581Z,60.8
2018-03-17T12:53:16.850Z,61.4
2018-03-17T12:54:17.213Z,61.3
2018-03-17T12:55:16.483Z,61.8
2018-03-17T12:56:16.761Z,61.5
2018-03-17T12:57:17.027Z,61.1
2018-03-17T12:58:16.308Z,61.0
2018-03-17T12:59:16.592Z,61.5
2018-03-17T13:00:16.868Z,61.1
2018-03-17T13:01:16.928Z,61.5
2018-03-17T13:02:17.206Z,61.5
2018-03-17T13:03:16.474Z,61.6
2018-03-17T13:04:16.743Z,61.0
2018-03-17T13:05:17.015Z,61.4
2018-03-17T13:06:16.281Z,61.5
2018-03-17T13:07:16.547Z,61.9
2018-03-17T13:08:16.820Z,61.4
2018-03-17T13:09:17.096Z,61.4
2018-03-17T13:10:16.367Z,61.0
2018-03-17T13:11:16.408Z,61.1
2018-03-17T13:12:16.675Z,61.0
2018-03-17T13:13:16.941Z,60.5
2018-03-17T13:14:17.208Z,60.5
2018-03-17T13:15:16.476Z,60.6
2018-03-17T13:16:16.744Z,60.4
2018-03-17T13:17:17.017Z,60.8
2018-03-17T13:18:16.295Z,60.7